sensor_id;sensor_type;location;lat;lon;timestamp;temperature;humidity
5176;DHT22;2607;50.934;6.934;2022-08-21T00:01:42;19.80;99.90
5176;DHT22;2607;50.934;6.934;2022-08-21T00:04:09;19.80;99.90
5176;DHT22;2607;50.934;6.934;2022-08-21T00:06:35;19.80;99.90
5176;DHT22;2607;50.934;6.934;2022-08-21T00:09:03;19.70;99.90
5176;DHT22;2607;50.934;6.934;2022-08-21T00:11:30;19.70;99.90
5176;DHT22;2607;50.934;6.934;2022-08-21T00:13:55;19.70;99.90
5176;DHT22;2607;50.934;6.934;2022-08-21T00:16:21;19.70;99.90
5176;DHT22;2607;50.934;6.934;2022-08-21T00:18:46;19.70;99.90
5176;DHT22;2607;50.934;6.934;2022-08-21T00:21:13;19.70;99.90
5176;DHT22;2607;50.934;6.934;2022-08-21T00:23:39;19.70;99.90
5176;DHT22;2607;50.934;6.934;2022-08-21T00:26:05;19.60;99.90
5176;DHT22;2607;50.934;6.934;2022-08-21T00:28:31;19.70;99.90
5176;DHT22;2607;50.934;6.934;2022-08-21T00:30:58;19.70;99.90
5176;DHT22;2607;50.934;6.934;2022-08-21T00:33:24;19.60;99.90
5176;DHT22;2607;50.934;6.934;2022-08-21T00:35:50;19.60;99.90
5176;DHT22;2607;50.934;6.934;2022-08-21T00:38:16;19.60;99.90
5176;DHT22;2607;50.934;6.934;2022-08-21T00:40:51;19.60;99.90
5176;DHT22;2607;50.934;6.934;2022-08-21T00:43:21;19.50;99.90
5176;DHT22;2607;50.934;6.934;2022-08-21T00:45:48;19.50;99.90
5176;DHT22;2607;50.934;6.934;2022-08-21T00:48:14;19.50;99.90
5176;DHT22;2607;50.934;6.934;2022-08-21T00:50:44;19.50;99.90
5176;DHT22;2607;50.934;6.934;2022-08-21T00:53:11;19.40;99.90
5176;DHT22;2607;50.934;6.934;2022-08-21T00:55:38;19.40;99.90
5176;DHT22;2607;50.934;6.934;2022-08-21T00:58:06;19.40;99.90
5176;DHT22;2607;50.934;6.934;2022-08-21T01:00:35;19.40;99.90
5176;DHT22;2607;50.934;6.934;2022-08-21T01:03:08;19.40;99.90
5176;DHT22;2607;50.934;6.934;2022-08-21T01:05:35;19.30;99.90
5176;DHT22;2607;50.934;6.934;2022-08-21T01:08:00;19.30;99.90
5176;DHT22;2607;50.934;6.934;2022-08-21T01:10:26;19.30;99.90
5176;DHT22;2607;50.934;6.934;2022-08-21T01:12:53;19.30;99.90
5176;DHT22;2607;50.934;6.934;2022-08-21T01:15:23;19.30;99.90
5176;DHT22;2607;50.934;6.934;2022-08-21T01:17:50;19.30;99.90
5176;DHT22;2607;50.934;6.934;2022-08-21T01:20:16;19.20;99.90
5176;DHT22;2607;50.934;6.934;2022-08-21T01:22:42;19.20;99.90
5176;DHT22;2607;50.934;6.934;2022-08-21T01:25:09;19.20;99.90
5176;DHT22;2607;50.934;6.934;2022-08-21T01:27:35;19.20;99.90
5176;DHT22;2607;50.934;6.934;2022-08-21T01:30:09;19.10;99.90
5176;DHT22;2607;50.934;6.934;2022-08-21T01:32:35;19.10;99.90
5176;DHT22;2607;50.934;6.934;2022-08-21T01:35:02;19.10;99.90
5176;DHT22;2607;50.934;6.934;2022-08-21T01:37:28;19.10;99.90
5176;DHT22;2607;50.934;6.934;2022-08-21T01:39:53;19.00;99.90
5176;DHT22;2607;50.934;6.934;2022-08-21T01:42:19;19.00;99.90
5176;DHT22;2607;50.934;6.934;2022-08-21T01:44:45;19.00;99.90
5176;DHT22;2607;50.934;6.934;2022-08-21T01:47:12;19.00;99.90
5176;DHT22;2607;50.934;6.934;2022-08-21T01:49:40;18.90;99.90
5176;DHT22;2607;50.934;6.934;2022-08-21T01:52:07;18.90;99.90
5176;DHT22;2607;50.934;6.934;2022-08-21T01:54:33;18.90;99.90
5176;DHT22;2607;50.934;6.934;2022-08-21T01:56:59;18.90;99.90
5176;DHT22;2607;50.934;6.934;2022-08-21T01:59:26;18.90;99.90
5176;DHT22;2607;50.934;6.934;2022-08-21T02:01:52;18.80;99.90
5176;DHT22;2607;50.934;6.934;2022-08-21T02:04:19;18.80;99.90
5176;DHT22;2607;50.934;6.934;2022-08-21T02:06:46;18.80;99.90
5176;DHT22;2607;50.934;6.934;2022-08-21T02:09:13;18.80;99.90
5176;DHT22;2607;50.934;6.934;2022-08-21T02:11:40;18.70;99.90
5176;DHT22;2607;50.934;6.934;2022-08-21T02:14:07;18.70;99.90
5176;DHT22;2607;50.934;6.934;2022-08-21T02:16:33;18.70;99.90
5176;DHT22;2607;50.934;6.934;2022-08-21T02:18:59;18.70;99.90
5176;DHT22;2607;50.934;6.934;2022-08-21T02:21:25;18.70;99.90
5176;DHT22;2607;50.934;6.934;2022-08-21T02:23:51;18.70;99.90
5176;DHT22;2607;50.934;6.934;2022-08-21T02:26:16;18.70;99.90
5176;DHT22;2607;50.934;6.934;2022-08-21T02:28:42;18.70;99.90
5176;DHT22;2607;50.934;6.934;2022-08-21T02:31:08;18.70;99.90
5176;DHT22;2607;50.934;6.934;2022-08-21T02:33:34;18.70;99.90
5176;DHT22;2607;50.934;6.934;2022-08-21T02:36:01;18.70;99.90
5176;DHT22;2607;50.934;6.934;2022-08-21T02:38:29;18.60;99.90
5176;DHT22;2607;50.934;6.934;2022-08-21T02:40:56;18.60;99.90
5176;DHT22;2607;50.934;6.934;2022-08-21T02:43:24;18.60;99.90
5176;DHT22;2607;50.934;6.934;2022-08-21T02:45:50;18.60;99.90
5176;DHT22;2607;50.934;6.934;2022-08-21T02:48:20;18.60;99.90
5176;DHT22;2607;50.934;6.934;2022-08-21T02:50:55;18.60;99.90
5176;DHT22;2607;50.934;6.934;2022-08-21T02:53:22;18.50;99.90
5176;DHT22;2607;50.934;6.934;2022-08-21T02:55:49;18.50;99.90
5176;DHT22;2607;50.934;6.934;2022-08-21T02:58:17;18.40;99.90
5176;DHT22;2607;50.934;6.934;2022-08-21T03:00:43;18.40;99.90
5176;DHT22;2607;50.934;6.934;2022-08-21T03:03:10;18.40;99.90
5176;DHT22;2607;50.934;6.934;2022-08-21T03:05:36;18.30;99.90
5176;DHT22;2607;50.934;6.934;2022-08-21T03:08:07;18.30;99.90
5176;DHT22;2607;50.934;6.934;2022-08-21T03:10:35;18.30;99.90
5176;DHT22;2607;50.934;6.934;2022-08-21T03:13:01;18.30;99.90
5176;DHT22;2607;50.934;6.934;2022-08-21T03:15:28;18.20;99.90
5176;DHT22;2607;50.934;6.934;2022-08-21T03:17:54;18.20;99.90
5176;DHT22;2607;50.934;6.934;2022-08-21T03:20:23;18.20;99.90
5176;DHT22;2607;50.934;6.934;2022-08-21T03:22:49;18.10;99.90
5176;DHT22;2607;50.934;6.934;2022-08-21T03:25:15;18.10;99.90
5176;DHT22;2607;50.934;6.934;2022-08-21T03:27:41;18.10;99.90
5176;DHT22;2607;50.934;6.934;2022-08-21T03:30:08;18.10;99.90
5176;DHT22;2607;50.934;6.934;2022-08-21T03:32:35;18.10;99.90
5176;DHT22;2607;50.934;6.934;2022-08-21T03:35:02;18.00;99.90
5176;DHT22;2607;50.934;6.934;2022-08-21T03:37:27;18.00;99.90
5176;DHT22;2607;50.934;6.934;2022-08-21T03:39:53;18.00;99.90
5176;DHT22;2607;50.934;6.934;2022-08-21T03:42:19;18.00;99.90
5176;DHT22;2607;50.934;6.934;2022-08-21T03:44:45;17.90;99.90
5176;DHT22;2607;50.934;6.934;2022-08-21T03:47:10;17.90;99.90
5176;DHT22;2607;50.934;6.934;2022-08-21T03:49:37;17.90;99.90
5176;DHT22;2607;50.934;6.934;2022-08-21T03:52:03;17.80;99.90
5176;DHT22;2607;50.934;6.934;2022-08-21T03:54:29;17.80;99.90
5176;DHT22;2607;50.934;6.934;2022-08-21T03:56:55;17.80;99.90
5176;DHT22;2607;50.934;6.934;2022-08-21T03:59:21;17.80;99.90
5176;DHT22;2607;50.934;6.934;2022-08-21T04:01:59;17.70;99.90
5176;DHT22;2607;50.934;6.934;2022-08-21T04:04:26;17.70;99.90
5176;DHT22;2607;50.934;6.934;2022-08-21T04:06:52;17.60;99.90
5176;DHT22;2607;50.934;6.934;2022-08-21T04:09:18;17.60;99.90
5176;DHT22;2607;50.934;6.934;2022-08-21T04:11:45;17.60;99.90
5176;DHT22;2607;50.934;6.934;2022-08-21T04:14:12;17.60;99.90
5176;DHT22;2607;50.934;6.934;2022-08-21T04:16:38;17.50;99.90
5176;DHT22;2607;50.934;6.934;2022-08-21T04:19:04;17.50;99.90
5176;DHT22;2607;50.934;6.934;2022-08-21T04:21:30;17.50;99.90
5176;DHT22;2607;50.934;6.934;2022-08-21T04:23:57;17.50;99.90
5176;DHT22;2607;50.934;6.934;2022-08-21T04:26:24;17.50;99.90
5176;DHT22;2607;50.934;6.934;2022-08-21T04:28:51;17.50;99.90
5176;DHT22;2607;50.934;6.934;2022-08-21T04:31:17;17.40;99.90
5176;DHT22;2607;50.934;6.934;2022-08-21T04:33:43;17.40;99.90
5176;DHT22;2607;50.934;6.934;2022-08-21T04:36:10;17.40;99.90
5176;DHT22;2607;50.934;6.934;2022-08-21T04:38:36;17.40;99.90
5176;DHT22;2607;50.934;6.934;2022-08-21T04:41:02;17.40;99.90
5176;DHT22;2607;50.934;6.934;2022-08-21T04:43:28;17.30;99.90
5176;DHT22;2607;50.934;6.934;2022-08-21T04:45:54;17.30;99.90
5176;DHT22;2607;50.934;6.934;2022-08-21T04:48:21;17.30;99.90
5176;DHT22;2607;50.934;6.934;2022-08-21T04:53:31;17.30;99.90
5176;DHT22;2607;50.934;6.934;2022-08-21T04:56:12;17.30;99.90
5176;DHT22;2607;50.934;6.934;2022-08-21T04:58:39;17.20;99.90
5176;DHT22;2607;50.934;6.934;2022-08-21T05:01:09;17.20;99.90
5176;DHT22;2607;50.934;6.934;2022-08-21T05:03:37;17.20;99.90
5176;DHT22;2607;50.934;6.934;2022-08-21T05:06:05;17.20;99.90
5176;DHT22;2607;50.934;6.934;2022-08-21T05:08:31;17.20;99.90
5176;DHT22;2607;50.934;6.934;2022-08-21T05:10:57;17.20;99.90
5176;DHT22;2607;50.934;6.934;2022-08-21T05:13:24;17.20;99.90
5176;DHT22;2607;50.934;6.934;2022-08-21T05:15:49;17.20;99.90
5176;DHT22;2607;50.934;6.934;2022-08-21T05:18:15;17.30;99.90
5176;DHT22;2607;50.934;6.934;2022-08-21T05:20:40;17.30;99.90
5176;DHT22;2607;50.934;6.934;2022-08-21T05:23:08;17.20;99.90
5176;DHT22;2607;50.934;6.934;2022-08-21T05:25:35;17.20;99.90
5176;DHT22;2607;50.934;6.934;2022-08-21T05:28:00;17.20;99.90
5176;DHT22;2607;50.934;6.934;2022-08-21T05:30:26;17.20;99.90
5176;DHT22;2607;50.934;6.934;2022-08-21T05:32:57;17.20;99.90
5176;DHT22;2607;50.934;6.934;2022-08-21T05:35:23;17.20;99.90
5176;DHT22;2607;50.934;6.934;2022-08-21T05:37:48;17.20;99.90
5176;DHT22;2607;50.934;6.934;2022-08-21T05:40:14;17.30;99.90
5176;DHT22;2607;50.934;6.934;2022-08-21T05:42:39;17.30;99.90
5176;DHT22;2607;50.934;6.934;2022-08-21T05:45:05;17.30;99.90
5176;DHT22;2607;50.934;6.934;2022-08-21T05:47:31;17.30;99.90
5176;DHT22;2607;50.934;6.934;2022-08-21T05:49:56;17.30;99.90
5176;DHT22;2607;50.934;6.934;2022-08-21T05:52:22;17.30;99.90
5176;DHT22;2607;50.934;6.934;2022-08-21T05:54:48;17.30;99.90
5176;DHT22;2607;50.934;6.934;2022-08-21T05:57:14;17.30;99.90
5176;DHT22;2607;50.934;6.934;2022-08-21T05:59:40;17.20;99.90
5176;DHT22;2607;50.934;6.934;2022-08-21T06:02:05;17.30;99.90
5176;DHT22;2607;50.934;6.934;2022-08-21T06:04:36;17.30;99.90
5176;DHT22;2607;50.934;6.934;2022-08-21T06:07:01;17.30;99.90
5176;DHT22;2607;50.934;6.934;2022-08-21T06:09:27;17.30;99.90
5176;DHT22;2607;50.934;6.934;2022-08-21T06:11:52;17.30;99.90
5176;DHT22;2607;50.934;6.934;2022-08-21T06:14:18;17.30;99.90
5176;DHT22;2607;50.934;6.934;2022-08-21T06:16:44;17.40;99.90
5176;DHT22;2607;50.934;6.934;2022-08-21T06:19:09;17.40;99.90
5176;DHT22;2607;50.934;6.934;2022-08-21T06:21:35;17.40;99.90
5176;DHT22;2607;50.934;6.934;2022-08-21T06:24:00;17.40;99.90
5176;DHT22;2607;50.934;6.934;2022-08-21T06:26:26;17.40;99.90
5176;DHT22;2607;50.934;6.934;2022-08-21T06:28:53;17.50;99.90
5176;DHT22;2607;50.934;6.934;2022-08-21T06:31:24;17.50;99.90
5176;DHT22;2607;50.934;6.934;2022-08-21T06:33:50;17.50;99.90
5176;DHT22;2607;50.934;6.934;2022-08-21T06:36:16;17.50;99.90
5176;DHT22;2607;50.934;6.934;2022-08-21T06:38:42;17.60;99.90
5176;DHT22;2607;50.934;6.934;2022-08-21T06:41:08;17.60;99.90
5176;DHT22;2607;50.934;6.934;2022-08-21T06:43:34;17.60;99.90
5176;DHT22;2607;50.934;6.934;2022-08-21T06:45:59;17.60;99.90
5176;DHT22;2607;50.934;6.934;2022-08-21T06:48:25;17.70;99.90
5176;DHT22;2607;50.934;6.934;2022-08-21T06:50:51;17.70;99.90
5176;DHT22;2607;50.934;6.934;2022-08-21T06:53:19;17.70;99.90
5176;DHT22;2607;50.934;6.934;2022-08-21T06:55:46;17.80;99.90
5176;DHT22;2607;50.934;6.934;2022-08-21T06:58:12;17.80;99.90
5176;DHT22;2607;50.934;6.934;2022-08-21T07:00:39;17.80;99.90
5176;DHT22;2607;50.934;6.934;2022-08-21T07:03:06;17.90;99.90
5176;DHT22;2607;50.934;6.934;2022-08-21T07:05:31;17.90;99.90
5176;DHT22;2607;50.934;6.934;2022-08-21T07:07:58;17.90;99.90
5176;DHT22;2607;50.934;6.934;2022-08-21T07:10:25;18.00;99.90
5176;DHT22;2607;50.934;6.934;2022-08-21T07:12:51;18.10;99.90
5176;DHT22;2607;50.934;6.934;2022-08-21T07:15:17;18.10;99.90
5176;DHT22;2607;50.934;6.934;2022-08-21T07:17:43;18.20;99.90
5176;DHT22;2607;50.934;6.934;2022-08-21T07:20:09;18.20;99.90
5176;DHT22;2607;50.934;6.934;2022-08-21T07:22:36;18.20;99.90
5176;DHT22;2607;50.934;6.934;2022-08-21T07:25:04;18.30;99.90
5176;DHT22;2607;50.934;6.934;2022-08-21T07:27:30;18.30;99.90
5176;DHT22;2607;50.934;6.934;2022-08-21T07:29:56;18.40;99.90
5176;DHT22;2607;50.934;6.934;2022-08-21T07:32:22;18.40;99.90
5176;DHT22;2607;50.934;6.934;2022-08-21T07:34:48;18.50;99.90
5176;DHT22;2607;50.934;6.934;2022-08-21T07:37:13;18.50;99.90
5176;DHT22;2607;50.934;6.934;2022-08-21T07:39:39;18.60;99.90
5176;DHT22;2607;50.934;6.934;2022-08-21T07:42:04;18.70;99.90
5176;DHT22;2607;50.934;6.934;2022-08-21T07:44:30;18.80;99.90
5176;DHT22;2607;50.934;6.934;2022-08-21T07:46:56;18.80;99.90
5176;DHT22;2607;50.934;6.934;2022-08-21T07:49:21;18.90;99.90
5176;DHT22;2607;50.934;6.934;2022-08-21T07:51:47;18.90;99.90
5176;DHT22;2607;50.934;6.934;2022-08-21T07:54:12;19.00;99.80
5176;DHT22;2607;50.934;6.934;2022-08-21T07:56:38;19.00;99.80
5176;DHT22;2607;50.934;6.934;2022-08-21T07:59:03;19.10;99.70
5176;DHT22;2607;50.934;6.934;2022-08-21T08:01:29;19.10;99.50
5176;DHT22;2607;50.934;6.934;2022-08-21T08:03:56;19.10;99.30
5176;DHT22;2607;50.934;6.934;2022-08-21T08:06:22;19.20;99.30
5176;DHT22;2607;50.934;6.934;2022-08-21T08:08:48;19.20;99.10
5176;DHT22;2607;50.934;6.934;2022-08-21T08:11:14;19.30;98.90
5176;DHT22;2607;50.934;6.934;2022-08-21T08:13:45;19.40;98.70
5176;DHT22;2607;50.934;6.934;2022-08-21T08:16:11;19.50;98.00
5176;DHT22;2607;50.934;6.934;2022-08-21T08:18:37;19.50;97.60
5176;DHT22;2607;50.934;6.934;2022-08-21T08:21:03;19.60;97.50
5176;DHT22;2607;50.934;6.934;2022-08-21T08:23:30;19.60;97.40
5176;DHT22;2607;50.934;6.934;2022-08-21T08:25:56;19.60;97.30
5176;DHT22;2607;50.934;6.934;2022-08-21T08:28:22;19.70;97.10
5176;DHT22;2607;50.934;6.934;2022-08-21T08:30:47;19.80;96.70
5176;DHT22;2607;50.934;6.934;2022-08-21T08:33:14;19.80;96.70
5176;DHT22;2607;50.934;6.934;2022-08-21T08:35:42;19.90;96.90
5176;DHT22;2607;50.934;6.934;2022-08-21T08:38:09;19.90;96.80
5176;DHT22;2607;50.934;6.934;2022-08-21T08:40:47;20.00;96.60
5176;DHT22;2607;50.934;6.934;2022-08-21T08:43:17;20.10;96.40
5176;DHT22;2607;50.934;6.934;2022-08-21T08:45:48;20.20;95.90
5176;DHT22;2607;50.934;6.934;2022-08-21T08:48:30;20.30;95.50
5176;DHT22;2607;50.934;6.934;2022-08-21T08:50:57;20.30;95.20
5176;DHT22;2607;50.934;6.934;2022-08-21T08:53:37;20.40;95.10
5176;DHT22;2607;50.934;6.934;2022-08-21T08:56:06;20.40;95.00
5176;DHT22;2607;50.934;6.934;2022-08-21T08:58:39;20.50;95.00
5176;DHT22;2607;50.934;6.934;2022-08-21T09:01:18;20.60;94.90
5176;DHT22;2607;50.934;6.934;2022-08-21T09:03:46;20.70;94.80
5176;DHT22;2607;50.934;6.934;2022-08-21T09:06:28;20.70;94.80
5176;DHT22;2607;50.934;6.934;2022-08-21T09:17:32;21.00;94.20
5176;DHT22;2607;50.934;6.934;2022-08-21T09:25:25;21.20;93.90
5176;DHT22;2607;50.934;6.934;2022-08-21T09:27:51;21.20;93.60
5176;DHT22;2607;50.934;6.934;2022-08-21T09:30:20;21.30;93.70
5176;DHT22;2607;50.934;6.934;2022-08-21T09:32:48;21.30;93.60
5176;DHT22;2607;50.934;6.934;2022-08-21T09:35:18;21.40;93.50
5176;DHT22;2607;50.934;6.934;2022-08-21T09:45:37;21.70;93.00
5176;DHT22;2607;50.934;6.934;2022-08-21T09:48:28;21.80;93.00
5176;DHT22;2607;50.934;6.934;2022-08-21T09:51:10;21.90;92.70
5176;DHT22;2607;50.934;6.934;2022-08-21T09:53:39;22.00;92.60
5176;DHT22;2607;50.934;6.934;2022-08-21T09:59:14;22.00;92.30
5176;DHT22;2607;50.934;6.934;2022-08-21T10:01:46;22.10;92.40
5176;DHT22;2607;50.934;6.934;2022-08-21T10:04:12;22.10;92.20
5176;DHT22;2607;50.934;6.934;2022-08-21T10:06:38;22.20;92.00
5176;DHT22;2607;50.934;6.934;2022-08-21T10:09:11;22.30;91.90
5176;DHT22;2607;50.934;6.934;2022-08-21T10:11:38;22.40;91.40
5176;DHT22;2607;50.934;6.934;2022-08-21T10:25:35;22.60;91.20
5176;DHT22;2607;50.934;6.934;2022-08-21T10:34:07;22.80;90.90
5176;DHT22;2607;50.934;6.934;2022-08-21T10:39:33;22.90;90.60
5176;DHT22;2607;50.934;6.934;2022-08-21T10:42:29;22.90;90.40
5176;DHT22;2607;50.934;6.934;2022-08-21T10:47:53;23.20;89.80
5176;DHT22;2607;50.934;6.934;2022-08-21T10:50:34;23.30;89.00
5176;DHT22;2607;50.934;6.934;2022-08-21T10:55:44;23.40;88.10
5176;DHT22;2607;50.934;6.934;2022-08-21T10:58:30;23.50;87.80
5176;DHT22;2607;50.934;6.934;2022-08-21T11:01:09;23.50;87.30
5176;DHT22;2607;50.934;6.934;2022-08-21T11:04:09;23.60;87.70
5176;DHT22;2607;50.934;6.934;2022-08-21T11:06:37;23.70;87.30
5176;DHT22;2607;50.934;6.934;2022-08-21T11:09:17;23.80;86.60
5176;DHT22;2607;50.934;6.934;2022-08-21T11:11:55;23.90;85.60
5176;DHT22;2607;50.934;6.934;2022-08-21T11:14:39;24.20;83.90
5176;DHT22;2607;50.934;6.934;2022-08-21T11:17:12;24.30;82.70
5176;DHT22;2607;50.934;6.934;2022-08-21T11:20:05;24.30;83.00
5176;DHT22;2607;50.934;6.934;2022-08-21T11:22:58;24.30;83.20
5176;DHT22;2607;50.934;6.934;2022-08-21T11:25:34;24.40;83.80
5176;DHT22;2607;50.934;6.934;2022-08-21T11:28:29;24.50;83.10
5176;DHT22;2607;50.934;6.934;2022-08-21T11:31:15;24.60;81.60
5176;DHT22;2607;50.934;6.934;2022-08-21T11:42:18;25.00;79.10
5176;DHT22;2607;50.934;6.934;2022-08-21T11:45:08;25.10;78.70
5176;DHT22;2607;50.934;6.934;2022-08-21T11:50:35;25.20;78.60
5176;DHT22;2607;50.934;6.934;2022-08-21T11:55:48;25.30;78.10
5176;DHT22;2607;50.934;6.934;2022-08-21T11:58:21;25.40;78.10
5176;DHT22;2607;50.934;6.934;2022-08-21T12:00:56;25.40;77.70
5176;DHT22;2607;50.934;6.934;2022-08-21T12:03:34;25.40;77.70
5176;DHT22;2607;50.934;6.934;2022-08-21T12:06:04;25.50;77.80
5176;DHT22;2607;50.934;6.934;2022-08-21T12:08:36;25.70;77.50
5176;DHT22;2607;50.934;6.934;2022-08-21T12:11:09;25.90;76.50
5176;DHT22;2607;50.934;6.934;2022-08-21T12:13:37;26.10;75.30
5176;DHT22;2607;50.934;6.934;2022-08-21T12:16:15;26.10;75.20
5176;DHT22;2607;50.934;6.934;2022-08-21T12:18:42;26.20;74.20
5176;DHT22;2607;50.934;6.934;2022-08-21T12:21:24;26.20;73.90
5176;DHT22;2607;50.934;6.934;2022-08-21T12:24:04;26.10;73.30
5176;DHT22;2607;50.934;6.934;2022-08-21T12:26:38;26.10;73.40
5176;DHT22;2607;50.934;6.934;2022-08-21T12:29:28;26.20;73.30
5176;DHT22;2607;50.934;6.934;2022-08-21T12:34:57;26.40;72.10
5176;DHT22;2607;50.934;6.934;2022-08-21T12:37:38;26.40;72.50
5176;DHT22;2607;50.934;6.934;2022-08-21T12:40:31;26.40;72.40
5176;DHT22;2607;50.934;6.934;2022-08-21T12:42:59;26.50;71.80
5176;DHT22;2607;50.934;6.934;2022-08-21T12:45:42;26.50;71.60
5176;DHT22;2607;50.934;6.934;2022-08-21T12:48:14;26.40;71.50
5176;DHT22;2607;50.934;6.934;2022-08-21T12:50:45;26.40;71.70
5176;DHT22;2607;50.934;6.934;2022-08-21T12:55:44;26.40;72.20
5176;DHT22;2607;50.934;6.934;2022-08-21T12:58:24;26.50;71.70
5176;DHT22;2607;50.934;6.934;2022-08-21T13:01:04;26.40;71.60
5176;DHT22;2607;50.934;6.934;2022-08-21T13:03:35;26.40;71.20
5176;DHT22;2607;50.934;6.934;2022-08-21T13:06:03;26.40;71.00
5176;DHT22;2607;50.934;6.934;2022-08-21T13:08:29;26.40;71.50
5176;DHT22;2607;50.934;6.934;2022-08-21T13:11:03;26.40;71.70
5176;DHT22;2607;50.934;6.934;2022-08-21T13:13:29;26.40;72.10
5176;DHT22;2607;50.934;6.934;2022-08-21T13:16:04;26.40;72.00
5176;DHT22;2607;50.934;6.934;2022-08-21T13:18:32;26.40;71.70
5176;DHT22;2607;50.934;6.934;2022-08-21T13:21:12;26.40;71.70
5176;DHT22;2607;50.934;6.934;2022-08-21T13:23:39;26.40;71.70
5176;DHT22;2607;50.934;6.934;2022-08-21T13:26:16;26.40;71.70
5176;DHT22;2607;50.934;6.934;2022-08-21T13:28:42;26.40;71.90
5176;DHT22;2607;50.934;6.934;2022-08-21T13:31:09;26.40;72.40
5176;DHT22;2607;50.934;6.934;2022-08-21T13:33:37;26.40;72.70
5176;DHT22;2607;50.934;6.934;2022-08-21T13:36:17;26.40;72.50
5176;DHT22;2607;50.934;6.934;2022-08-21T13:38:45;26.40;71.90
5176;DHT22;2607;50.934;6.934;2022-08-21T13:41:22;26.40;72.30
5176;DHT22;2607;50.934;6.934;2022-08-21T13:43:57;26.40;72.40
5176;DHT22;2607;50.934;6.934;2022-08-21T13:46:26;26.50;72.40
5176;DHT22;2607;50.934;6.934;2022-08-21T13:48:54;26.50;72.70
5176;DHT22;2607;50.934;6.934;2022-08-21T13:51:20;26.50;71.80
5176;DHT22;2607;50.934;6.934;2022-08-21T13:53:49;26.50;71.80
5176;DHT22;2607;50.934;6.934;2022-08-21T13:56:24;26.50;71.80
5176;DHT22;2607;50.934;6.934;2022-08-21T13:58:51;26.50;72.10
5176;DHT22;2607;50.934;6.934;2022-08-21T14:04:22;26.50;71.90
5176;DHT22;2607;50.934;6.934;2022-08-21T14:06:49;26.50;71.60
5176;DHT22;2607;50.934;6.934;2022-08-21T14:09:39;26.60;71.10
5176;DHT22;2607;50.934;6.934;2022-08-21T14:12:31;26.50;70.80
5176;DHT22;2607;50.934;6.934;2022-08-21T14:15:02;26.40;71.00
5176;DHT22;2607;50.934;6.934;2022-08-21T14:17:38;26.40;71.30
5176;DHT22;2607;50.934;6.934;2022-08-21T14:20:07;26.30;71.20
5176;DHT22;2607;50.934;6.934;2022-08-21T14:25:11;26.20;71.50
5176;DHT22;2607;50.934;6.934;2022-08-21T14:27:43;26.10;71.30
5176;DHT22;2607;50.934;6.934;2022-08-21T14:30:13;26.10;71.30
5176;DHT22;2607;50.934;6.934;2022-08-21T14:32:41;26.00;71.50
5176;DHT22;2607;50.934;6.934;2022-08-21T14:35:08;26.00;71.80
5176;DHT22;2607;50.934;6.934;2022-08-21T14:37:34;25.90;71.20
5176;DHT22;2607;50.934;6.934;2022-08-21T14:40:00;25.80;71.00
5176;DHT22;2607;50.934;6.934;2022-08-21T14:42:25;25.70;71.10
5176;DHT22;2607;50.934;6.934;2022-08-21T14:44:52;25.70;70.80
5176;DHT22;2607;50.934;6.934;2022-08-21T14:47:19;25.60;71.00
5176;DHT22;2607;50.934;6.934;2022-08-21T14:49:44;25.50;71.30
5176;DHT22;2607;50.934;6.934;2022-08-21T14:52:10;25.40;71.70
5176;DHT22;2607;50.934;6.934;2022-08-21T14:54:36;25.40;71.60
5176;DHT22;2607;50.934;6.934;2022-08-21T14:57:05;25.30;71.80
5176;DHT22;2607;50.934;6.934;2022-08-21T14:59:31;25.30;71.30
5176;DHT22;2607;50.934;6.934;2022-08-21T15:01:58;25.20;71.50
5176;DHT22;2607;50.934;6.934;2022-08-21T15:04:24;25.10;71.50
5176;DHT22;2607;50.934;6.934;2022-08-21T15:06:50;25.10;71.40
5176;DHT22;2607;50.934;6.934;2022-08-21T15:09:15;25.10;71.20
5176;DHT22;2607;50.934;6.934;2022-08-21T15:11:41;25.10;71.40
5176;DHT22;2607;50.934;6.934;2022-08-21T15:14:11;25.10;71.50
5176;DHT22;2607;50.934;6.934;2022-08-21T15:16:40;25.10;71.40
5176;DHT22;2607;50.934;6.934;2022-08-21T15:19:07;25.10;71.70
5176;DHT22;2607;50.934;6.934;2022-08-21T15:21:32;25.10;71.80
5176;DHT22;2607;50.934;6.934;2022-08-21T15:23:58;25.10;72.10
5176;DHT22;2607;50.934;6.934;2022-08-21T15:26:24;25.10;72.30
5176;DHT22;2607;50.934;6.934;2022-08-21T15:28:49;25.10;72.50
5176;DHT22;2607;50.934;6.934;2022-08-21T15:31:15;25.10;72.60
5176;DHT22;2607;50.934;6.934;2022-08-21T15:33:40;25.10;72.80
5176;DHT22;2607;50.934;6.934;2022-08-21T15:36:06;25.10;72.80
5176;DHT22;2607;50.934;6.934;2022-08-21T15:38:32;25.10;72.70
5176;DHT22;2607;50.934;6.934;2022-08-21T15:40:57;25.10;72.30
5176;DHT22;2607;50.934;6.934;2022-08-21T15:43:29;25.10;72.60
5176;DHT22;2607;50.934;6.934;2022-08-21T15:45:55;25.10;72.30
5176;DHT22;2607;50.934;6.934;2022-08-21T15:48:21;25.10;72.30
5176;DHT22;2607;50.934;6.934;2022-08-21T15:50:47;25.10;72.40
5176;DHT22;2607;50.934;6.934;2022-08-21T15:53:13;25.10;72.40
5176;DHT22;2607;50.934;6.934;2022-08-21T15:55:39;25.10;72.30
5176;DHT22;2607;50.934;6.934;2022-08-21T15:58:05;25.20;72.80
5176;DHT22;2607;50.934;6.934;2022-08-21T16:00:34;25.20;71.80
5176;DHT22;2607;50.934;6.934;2022-08-21T16:03:03;25.20;71.90
5176;DHT22;2607;50.934;6.934;2022-08-21T16:05:30;25.20;71.90
5176;DHT22;2607;50.934;6.934;2022-08-21T16:07:57;25.20;71.90
5176;DHT22;2607;50.934;6.934;2022-08-21T16:10:23;25.20;72.10
5176;DHT22;2607;50.934;6.934;2022-08-21T16:12:54;25.30;71.50
5176;DHT22;2607;50.934;6.934;2022-08-21T16:15:21;25.30;71.80
5176;DHT22;2607;50.934;6.934;2022-08-21T16:17:48;25.20;71.90
5176;DHT22;2607;50.934;6.934;2022-08-21T16:20:19;25.20;71.50
5176;DHT22;2607;50.934;6.934;2022-08-21T16:22:45;25.40;71.20
5176;DHT22;2607;50.934;6.934;2022-08-21T16:25:12;25.40;70.90
5176;DHT22;2607;50.934;6.934;2022-08-21T16:27:39;25.40;71.20
5176;DHT22;2607;50.934;6.934;2022-08-21T16:30:06;25.40;71.40
5176;DHT22;2607;50.934;6.934;2022-08-21T16:32:32;25.30;71.10
5176;DHT22;2607;50.934;6.934;2022-08-21T16:34:59;25.30;70.50
5176;DHT22;2607;50.934;6.934;2022-08-21T16:37:25;25.30;70.10
5176;DHT22;2607;50.934;6.934;2022-08-21T16:39:51;25.30;69.60
5176;DHT22;2607;50.934;6.934;2022-08-21T16:42:20;25.40;69.50
5176;DHT22;2607;50.934;6.934;2022-08-21T16:44:47;25.30;69.60
5176;DHT22;2607;50.934;6.934;2022-08-21T16:47:12;25.30;69.80
5176;DHT22;2607;50.934;6.934;2022-08-21T16:49:38;25.20;69.80
5176;DHT22;2607;50.934;6.934;2022-08-21T16:52:04;25.20;69.80
5176;DHT22;2607;50.934;6.934;2022-08-21T16:54:30;25.20;70.10
5176;DHT22;2607;50.934;6.934;2022-08-21T16:56:56;25.20;70.10
5176;DHT22;2607;50.934;6.934;2022-08-21T16:59:23;25.20;70.30
5176;DHT22;2607;50.934;6.934;2022-08-21T17:01:48;25.10;70.40
5176;DHT22;2607;50.934;6.934;2022-08-21T17:04:14;25.10;70.70
5176;DHT22;2607;50.934;6.934;2022-08-21T17:06:40;25.20;71.00
5176;DHT22;2607;50.934;6.934;2022-08-21T17:09:06;25.20;71.30
5176;DHT22;2607;50.934;6.934;2022-08-21T17:11:34;25.10;71.60
5176;DHT22;2607;50.934;6.934;2022-08-21T17:14:03;25.10;72.20
5176;DHT22;2607;50.934;6.934;2022-08-21T17:16:29;25.10;72.30
5176;DHT22;2607;50.934;6.934;2022-08-21T17:18:55;25.10;72.50
5176;DHT22;2607;50.934;6.934;2022-08-21T17:21:21;25.00;72.80
5176;DHT22;2607;50.934;6.934;2022-08-21T17:23:47;24.90;72.90
5176;DHT22;2607;50.934;6.934;2022-08-21T17:26:15;24.90;73.20
5176;DHT22;2607;50.934;6.934;2022-08-21T17:28:42;24.90;73.20
5176;DHT22;2607;50.934;6.934;2022-08-21T17:31:09;24.90;73.30